sensor_id;sensor_type;location;lat;lon;timestamp;P1;durP1;ratioP1;P2;durP2;ratioP2
8113;SDS011;4099;52.684;9.918;2023-01-29T00:04:13;23.23;;;14.57;;
8113;SDS011;4099;52.684;9.918;2023-01-29T00:09:15;28.03;;;14.27;;
8113;SDS011;4099;52.684;9.918;2023-01-29T00:14:19;23.53;;;14.30;;
8113;SDS011;4099;52.684;9.918;2023-01-29T00:19:21;24.63;;;15.70;;
8113;SDS011;4099;52.684;9.918;2023-01-29T00:24:23;25.53;;;15.30;;
8113;SDS011;4099;52.684;9.918;2023-01-29T00:29:26;25.03;;;14.80;;
8113;SDS011;4099;52.684;9.918;2023-01-29T00:34:28;23.53;;;14.53;;
8113;SDS011;4099;52.684;9.918;2023-01-29T00:39:29;25.47;;;14.37;;
8113;SDS011;4099;52.684;9.918;2023-01-29T00:44:39;25.57;;;14.47;;
8113;SDS011;4099;52.684;9.918;2023-01-29T00:49:59;25.30;;;14.83;;
8113;SDS011;4099;52.684;9.918;2023-01-29T00:55:02;25.93;;;15.63;;
8113;SDS011;4099;52.684;9.918;2023-01-29T01:00:08;23.33;;;14.80;;
8113;SDS011;4099;52.684;9.918;2023-01-29T01:05:13;26.43;;;14.93;;
8113;SDS011;4099;52.684;9.918;2023-01-29T01:10:18;25.00;;;15.50;;
8113;SDS011;4099;52.684;9.918;2023-01-29T01:15:24;23.37;;;14.40;;
8113;SDS011;4099;52.684;9.918;2023-01-29T01:20:27;28.33;;;15.07;;
8113;SDS011;4099;52.684;9.918;2023-01-29T01:25:30;22.10;;;14.33;;
8113;SDS011;4099;52.684;9.918;2023-01-29T01:30:33;24.63;;;15.83;;
8113;SDS011;4099;52.684;9.918;2023-01-29T01:35:35;26.00;;;15.53;;
8113;SDS011;4099;52.684;9.918;2023-01-29T01:40:42;24.17;;;15.13;;
8113;SDS011;4099;52.684;9.918;2023-01-29T01:45:46;25.07;;;15.17;;
8113;SDS011;4099;52.684;9.918;2023-01-29T01:50:49;24.77;;;14.77;;
8113;SDS011;4099;52.684;9.918;2023-01-29T01:55:54;23.43;;;15.00;;
8113;SDS011;4099;52.684;9.918;2023-01-29T02:01:00;24.40;;;14.83;;
8113;SDS011;4099;52.684;9.918;2023-01-29T02:06:04;26.03;;;15.30;;
8113;SDS011;4099;52.684;9.918;2023-01-29T02:11:24;27.83;;;16.90;;
8113;SDS011;4099;52.684;9.918;2023-01-29T02:16:27;25.60;;;15.17;;
8113;SDS011;4099;52.684;9.918;2023-01-29T02:21:35;28.83;;;16.33;;
8113;SDS011;4099;52.684;9.918;2023-01-29T02:27:05;27.33;;;15.93;;
8113;SDS011;4099;52.684;9.918;2023-01-29T02:32:19;26.33;;;15.43;;
8113;SDS011;4099;52.684;9.918;2023-01-29T02:37:29;27.23;;;15.87;;
8113;SDS011;4099;52.684;9.918;2023-01-29T02:42:37;27.43;;;16.13;;
8113;SDS011;4099;52.684;9.918;2023-01-29T02:47:46;25.53;;;16.10;;
8113;SDS011;4099;52.684;9.918;2023-01-29T02:52:53;25.10;;;15.43;;
8113;SDS011;4099;52.684;9.918;2023-01-29T02:58:02;24.97;;;15.80;;
8113;SDS011;4099;52.684;9.918;2023-01-29T03:03:13;26.77;;;15.27;;
8113;SDS011;4099;52.684;9.918;2023-01-29T03:08:20;26.60;;;16.03;;
8113;SDS011;4099;52.684;9.918;2023-01-29T03:13:37;24.00;;;15.10;;
8113;SDS011;4099;52.684;9.918;2023-01-29T03:18:45;25.73;;;15.17;;
8113;SDS011;4099;52.684;9.918;2023-01-29T03:23:52;31.00;;;15.80;;
8113;SDS011;4099;52.684;9.918;2023-01-29T03:29:14;28.50;;;16.10;;
8113;SDS011;4099;52.684;9.918;2023-01-29T03:34:37;24.47;;;15.20;;
8113;SDS011;4099;52.684;9.918;2023-01-29T03:39:43;25.23;;;15.93;;
8113;SDS011;4099;52.684;9.918;2023-01-29T03:44:47;25.47;;;15.60;;
8113;SDS011;4099;52.684;9.918;2023-01-29T03:50:04;26.57;;;15.53;;
8113;SDS011;4099;52.684;9.918;2023-01-29T03:55:13;26.10;;;15.53;;
8113;SDS011;4099;52.684;9.918;2023-01-29T04:00:19;27.07;;;15.80;;
8113;SDS011;4099;52.684;9.918;2023-01-29T04:05:37;25.57;;;15.43;;
8113;SDS011;4099;52.684;9.918;2023-01-29T04:10:48;27.87;;;16.47;;
8113;SDS011;4099;52.684;9.918;2023-01-29T04:15:54;27.27;;;16.07;;
8113;SDS011;4099;52.684;9.918;2023-01-29T04:21:19;29.20;;;16.70;;
8113;SDS011;4099;52.684;9.918;2023-01-29T04:26:28;24.63;;;14.37;;
8113;SDS011;4099;52.684;9.918;2023-01-29T04:31:45;24.90;;;15.00;;
8113;SDS011;4099;52.684;9.918;2023-01-29T04:36:57;25.57;;;15.23;;
8113;SDS011;4099;52.684;9.918;2023-01-29T04:42:09;26.80;;;15.37;;
8113;SDS011;4099;52.684;9.918;2023-01-29T04:47:17;25.57;;;15.87;;
8113;SDS011;4099;52.684;9.918;2023-01-29T04:52:29;24.30;;;14.40;;
8113;SDS011;4099;52.684;9.918;2023-01-29T04:57:40;26.60;;;15.13;;
8113;SDS011;4099;52.684;9.918;2023-01-29T05:02:47;27.23;;;14.90;;
8113;SDS011;4099;52.684;9.918;2023-01-29T05:07:50;26.03;;;15.57;;
8113;SDS011;4099;52.684;9.918;2023-01-29T05:12:55;25.43;;;14.17;;
8113;SDS011;4099;52.684;9.918;2023-01-29T05:18:00;24.73;;;14.40;;
8113;SDS011;4099;52.684;9.918;2023-01-29T05:23:04;26.43;;;15.23;;
8113;SDS011;4099;52.684;9.918;2023-01-29T05:28:10;26.23;;;14.67;;
8113;SDS011;4099;52.684;9.918;2023-01-29T05:33:16;25.30;;;14.17;;
8113;SDS011;4099;52.684;9.918;2023-01-29T05:38:21;23.87;;;14.17;;
8113;SDS011;4099;52.684;9.918;2023-01-29T05:43:23;26.47;;;15.33;;
8113;SDS011;4099;52.684;9.918;2023-01-29T05:48:26;25.57;;;14.73;;
8113;SDS011;4099;52.684;9.918;2023-01-29T05:53:31;23.47;;;13.87;;
8113;SDS011;4099;52.684;9.918;2023-01-29T05:58:33;26.63;;;14.37;;
8113;SDS011;4099;52.684;9.918;2023-01-29T06:03:35;26.10;;;15.33;;
8113;SDS011;4099;52.684;9.918;2023-01-29T06:08:38;25.53;;;14.43;;
8113;SDS011;4099;52.684;9.918;2023-01-29T06:13:40;25.73;;;14.47;;
8113;SDS011;4099;52.684;9.918;2023-01-29T06:18:42;23.33;;;13.70;;
8113;SDS011;4099;52.684;9.918;2023-01-29T06:23:45;25.30;;;15.50;;
8113;SDS011;4099;52.684;9.918;2023-01-29T06:28:47;24.60;;;14.87;;
8113;SDS011;4099;52.684;9.918;2023-01-29T06:33:49;25.47;;;14.97;;
8113;SDS011;4099;52.684;9.918;2023-01-29T06:38:52;23.23;;;14.07;;
8113;SDS011;4099;52.684;9.918;2023-01-29T06:43:53;27.07;;;14.90;;
8113;SDS011;4099;52.684;9.918;2023-01-29T06:48:56;26.83;;;14.57;;
8113;SDS011;4099;52.684;9.918;2023-01-29T06:54:00;25.23;;;14.80;;
8113;SDS011;4099;52.684;9.918;2023-01-29T06:59:02;27.73;;;15.67;;
8113;SDS011;4099;52.684;9.918;2023-01-29T07:04:05;28.20;;;16.03;;
8113;SDS011;4099;52.684;9.918;2023-01-29T07:09:10;24.33;;;14.47;;
8113;SDS011;4099;52.684;9.918;2023-01-29T07:14:11;26.57;;;16.27;;
8113;SDS011;4099;52.684;9.918;2023-01-29T07:19:13;27.67;;;16.67;;
8113;SDS011;4099;52.684;9.918;2023-01-29T07:24:16;28.63;;;17.57;;
8113;SDS011;4099;52.684;9.918;2023-01-29T07:29:18;29.83;;;16.77;;
8113;SDS011;4099;52.684;9.918;2023-01-29T07:34:20;30.40;;;16.90;;
8113;SDS011;4099;52.684;9.918;2023-01-29T07:39:23;30.60;;;17.63;;
8113;SDS011;4099;52.684;9.918;2023-01-29T07:44:25;29.17;;;17.83;;
8113;SDS011;4099;52.684;9.918;2023-01-29T07:49:28;33.50;;;18.97;;
8113;SDS011;4099;52.684;9.918;2023-01-29T07:54:31;36.53;;;19.37;;
8113;SDS011;4099;52.684;9.918;2023-01-29T07:59:33;32.13;;;18.33;;
8113;SDS011;4099;52.684;9.918;2023-01-29T08:04:35;34.30;;;19.70;;
8113;SDS011;4099;52.684;9.918;2023-01-29T08:09:38;38.43;;;21.20;;
8113;SDS011;4099;52.684;9.918;2023-01-29T08:14:39;39.90;;;21.53;;
8113;SDS011;4099;52.684;9.918;2023-01-29T08:19:41;41.33;;;22.83;;
8113;SDS011;4099;52.684;9.918;2023-01-29T08:24:44;43.63;;;23.53;;
8113;SDS011;4099;52.684;9.918;2023-01-29T08:29:46;45.07;;;24.30;;
8113;SDS011;4099;52.684;9.918;2023-01-29T08:34:48;47.83;;;25.53;;
8113;SDS011;4099;52.684;9.918;2023-01-29T08:39:51;46.73;;;25.43;;
8113;SDS011;4099;52.684;9.918;2023-01-29T08:44:52;48.30;;;25.23;;
8113;SDS011;4099;52.684;9.918;2023-01-29T08:49:54;46.97;;;24.47;;
8113;SDS011;4099;52.684;9.918;2023-01-29T08:54:57;51.90;;;27.20;;
8113;SDS011;4099;52.684;9.918;2023-01-29T08:59:59;53.27;;;26.53;;
8113;SDS011;4099;52.684;9.918;2023-01-29T09:05:01;53.87;;;26.57;;
8113;SDS011;4099;52.684;9.918;2023-01-29T09:10:04;55.57;;;26.57;;
8113;SDS011;4099;52.684;9.918;2023-01-29T09:15:07;54.53;;;27.47;;
8113;SDS011;4099;52.684;9.918;2023-01-29T09:20:10;60.60;;;28.93;;
8113;SDS011;4099;52.684;9.918;2023-01-29T09:25:13;50.27;;;26.43;;
8113;SDS011;4099;52.684;9.918;2023-01-29T09:30:15;53.23;;;27.40;;
8113;SDS011;4099;52.684;9.918;2023-01-29T09:35:18;49.00;;;25.83;;
8113;SDS011;4099;52.684;9.918;2023-01-29T09:40:24;49.03;;;24.63;;
8113;SDS011;4099;52.684;9.918;2023-01-29T09:45:30;42.53;;;23.20;;
8113;SDS011;4099;52.684;9.918;2023-01-29T09:50:34;44.17;;;23.87;;
8113;SDS011;4099;52.684;9.918;2023-01-29T09:55:41;42.33;;;23.47;;
8113;SDS011;4099;52.684;9.918;2023-01-29T10:00:47;43.33;;;23.40;;
8113;SDS011;4099;52.684;9.918;2023-01-29T10:06:01;38.37;;;20.90;;
8113;SDS011;4099;52.684;9.918;2023-01-29T10:11:16;38.33;;;21.60;;
8113;SDS011;4099;52.684;9.918;2023-01-29T10:16:31;38.63;;;21.77;;
8113;SDS011;4099;52.684;9.918;2023-01-29T10:21:48;38.03;;;21.10;;
8113;SDS011;4099;52.684;9.918;2023-01-29T10:27:01;40.53;;;22.83;;
8113;SDS011;4099;52.684;9.918;2023-01-29T10:32:07;40.30;;;22.93;;
8113;SDS011;4099;52.684;9.918;2023-01-29T10:37:15;40.23;;;22.07;;
8113;SDS011;4099;52.684;9.918;2023-01-29T10:42:24;43.67;;;23.93;;
8113;SDS011;4099;52.684;9.918;2023-01-29T10:47:44;35.20;;;21.27;;
8113;SDS011;4099;52.684;9.918;2023-01-29T10:53:19;35.17;;;21.43;;
8113;SDS011;4099;52.684;9.918;2023-01-29T10:58:32;36.30;;;21.30;;
8113;SDS011;4099;52.684;9.918;2023-01-29T11:03:39;37.03;;;21.57;;
8113;SDS011;4099;52.684;9.918;2023-01-29T11:08:42;36.13;;;20.03;;
8113;SDS011;4099;52.684;9.918;2023-01-29T11:13:52;36.00;;;20.77;;
8113;SDS011;4099;52.684;9.918;2023-01-29T11:18:57;34.90;;;20.17;;
8113;SDS011;4099;52.684;9.918;2023-01-29T11:24:08;32.00;;;20.13;;
8113;SDS011;4099;52.684;9.918;2023-01-29T11:29:36;36.33;;;21.60;;
8113;SDS011;4099;52.684;9.918;2023-01-29T11:34:58;34.40;;;19.80;;
8113;SDS011;4099;52.684;9.918;2023-01-29T11:40:11;31.53;;;18.63;;
8113;SDS011;4099;52.684;9.918;2023-01-29T11:45:36;33.93;;;18.97;;
8113;SDS011;4099;52.684;9.918;2023-01-29T11:50:39;32.83;;;17.47;;
8113;SDS011;4099;52.684;9.918;2023-01-29T11:55:41;31.23;;;17.73;;
8113;SDS011;4099;52.684;9.918;2023-01-29T12:00:48;33.60;;;18.07;;
8113;SDS011;4099;52.684;9.918;2023-01-29T12:05:54;30.70;;;18.13;;
8113;SDS011;4099;52.684;9.918;2023-01-29T12:11:05;30.70;;;18.00;;
8113;SDS011;4099;52.684;9.918;2023-01-29T12:16:12;34.60;;;19.23;;
8113;SDS011;4099;52.684;9.918;2023-01-29T12:21:25;31.87;;;19.93;;
8113;SDS011;4099;52.684;9.918;2023-01-29T12:26:31;30.93;;;17.67;;
8113;SDS011;4099;52.684;9.918;2023-01-29T12:31:37;34.23;;;19.23;;
8113;SDS011;4099;52.684;9.918;2023-01-29T12:36:45;32.90;;;17.93;;
8113;SDS011;4099;52.684;9.918;2023-01-29T12:41:53;35.57;;;20.27;;
8113;SDS011;4099;52.684;9.918;2023-01-29T12:46:59;35.57;;;20.17;;
8113;SDS011;4099;52.684;9.918;2023-01-29T12:52:07;37.93;;;19.27;;
8113;SDS011;4099;52.684;9.918;2023-01-29T12:57:15;37.50;;;20.80;;
8113;SDS011;4099;52.684;9.918;2023-01-29T13:02:29;35.43;;;20.03;;
8113;SDS011;4099;52.684;9.918;2023-01-29T13:07:35;34.50;;;19.83;;
8113;SDS011;4099;52.684;9.918;2023-01-29T13:12:47;34.67;;;20.33;;
8113;SDS011;4099;52.684;9.918;2023-01-29T13:17:56;35.07;;;20.40;;
8113;SDS011;4099;52.684;9.918;2023-01-29T13:23:11;34.43;;;19.77;;
8113;SDS011;4099;52.684;9.918;2023-01-29T13:28:19;36.83;;;21.40;;
8113;SDS011;4099;52.684;9.918;2023-01-29T13:33:24;34.50;;;19.80;;
8113;SDS011;4099;52.684;9.918;2023-01-29T13:38:27;37.43;;;23.43;;
8113;SDS011;4099;52.684;9.918;2023-01-29T13:43:33;39.50;;;23.43;;
8113;SDS011;4099;52.684;9.918;2023-01-29T13:48:41;35.60;;;20.77;;
8113;SDS011;4099;52.684;9.918;2023-01-29T13:53:50;36.37;;;20.97;;
8113;SDS011;4099;52.684;9.918;2023-01-29T13:58:57;37.13;;;21.43;;
8113;SDS011;4099;52.684;9.918;2023-01-29T14:04:03;38.40;;;23.73;;
8113;SDS011;4099;52.684;9.918;2023-01-29T14:09:33;42.10;;;23.37;;
8113;SDS011;4099;52.684;9.918;2023-01-29T14:20:24;34.30;;;20.27;;
8113;SDS011;4099;52.684;9.918;2023-01-29T14:25:32;36.83;;;21.87;;
8113;SDS011;4099;52.684;9.918;2023-01-29T14:30:37;38.03;;;22.30;;
8113;SDS011;4099;52.684;9.918;2023-01-29T14:35:42;88.67;;;42.40;;
8113;SDS011;4099;52.684;9.918;2023-01-29T14:40:50;35.87;;;21.03;;
8113;SDS011;4099;52.684;9.918;2023-01-29T14:51:47;39.67;;;22.57;;
8113;SDS011;4099;52.684;9.918;2023-01-29T14:56:53;35.17;;;22.10;;
8113;SDS011;4099;52.684;9.918;2023-01-29T15:01:59;35.83;;;20.70;;
8113;SDS011;4099;52.684;9.918;2023-01-29T15:07:13;38.87;;;21.77;;
8113;SDS011;4099;52.684;9.918;2023-01-29T15:12:23;43.50;;;24.50;;
8113;SDS011;4099;52.684;9.918;2023-01-29T15:17:29;41.73;;;23.93;;
8113;SDS011;4099;52.684;9.918;2023-01-29T15:22:42;39.90;;;23.83;;
8113;SDS011;4099;52.684;9.918;2023-01-29T15:27:44;42.53;;;23.87;;
8113;SDS011;4099;52.684;9.918;2023-01-29T15:32:46;43.70;;;24.90;;
8113;SDS011;4099;52.684;9.918;2023-01-29T15:37:58;40.10;;;23.57;;
8113;SDS011;4099;52.684;9.918;2023-01-29T15:43:01;41.37;;;23.97;;
8113;SDS011;4099;52.684;9.918;2023-01-29T15:48:20;51.10;;;26.90;;
8113;SDS011;4099;52.684;9.918;2023-01-29T15:53:33;46.70;;;26.03;;
8113;SDS011;4099;52.684;9.918;2023-01-29T15:58:36;47.67;;;28.53;;
8113;SDS011;4099;52.684;9.918;2023-01-29T16:03:39;49.13;;;26.80;;
8113;SDS011;4099;52.684;9.918;2023-01-29T16:08:44;50.17;;;26.67;;
8113;SDS011;4099;52.684;9.918;2023-01-29T16:13:49;51.67;;;26.80;;
8113;SDS011;4099;52.684;9.918;2023-01-29T16:18:52;54.20;;;28.57;;
8113;SDS011;4099;52.684;9.918;2023-01-29T16:23:57;53.13;;;29.30;;
8113;SDS011;4099;52.684;9.918;2023-01-29T16:29:02;49.03;;;28.93;;
8113;SDS011;4099;52.684;9.918;2023-01-29T16:34:05;52.23;;;26.87;;
8113;SDS011;4099;52.684;9.918;2023-01-29T16:39:13;48.53;;;27.07;;
8113;SDS011;4099;52.684;9.918;2023-01-29T16:44:30;45.47;;;27.00;;
8113;SDS011;4099;52.684;9.918;2023-01-29T16:49:43;48.60;;;26.70;;
8113;SDS011;4099;52.684;9.918;2023-01-29T16:54:50;51.20;;;28.33;;
8113;SDS011;4099;52.684;9.918;2023-01-29T16:59:52;46.73;;;28.13;;
8113;SDS011;4099;52.684;9.918;2023-01-29T17:04:56;43.83;;;23.03;;
8113;SDS011;4099;52.684;9.918;2023-01-29T17:10:02;48.83;;;26.97;;
8113;SDS011;4099;52.684;9.918;2023-01-29T17:15:23;47.23;;;25.17;;
8113;SDS011;4099;52.684;9.918;2023-01-29T17:20:30;46.50;;;25.37;;
8113;SDS011;4099;52.684;9.918;2023-01-29T17:25:34;46.50;;;26.30;;
8113;SDS011;4099;52.684;9.918;2023-01-29T17:30:36;47.43;;;26.40;;
8113;SDS011;4099;52.684;9.918;2023-01-29T17:35:38;48.63;;;26.57;;
8113;SDS011;4099;52.684;9.918;2023-01-29T17:40:43;44.20;;;25.07;;
8113;SDS011;4099;52.684;9.918;2023-01-29T17:45:49;44.93;;;25.13;;
8113;SDS011;4099;52.684;9.918;2023-01-29T17:50:51;47.87;;;26.00;;
8113;SDS011;4099;52.684;9.918;2023-01-29T17:55:56;46.13;;;24.77;;
8113;SDS011;4099;52.684;9.918;2023-01-29T18:00:58;48.50;;;26.23;;
8113;SDS011;4099;52.684;9.918;2023-01-29T18:05:59;48.03;;;25.43;;
8113;SDS011;4099;52.684;9.918;2023-01-29T18:11:03;56.27;;;30.27;;
8113;SDS011;4099;52.684;9.918;2023-01-29T18:16:05;55.73;;;27.77;;
8113;SDS011;4099;52.684;9.918;2023-01-29T18:21:07;59.87;;;31.43;;
8113;SDS011;4099;52.684;9.918;2023-01-29T18:26:10;67.90;;;32.73;;
8113;SDS011;4099;52.684;9.918;2023-01-29T18:31:13;61.27;;;32.40;;
8113;SDS011;4099;52.684;9.918;2023-01-29T18:36:14;63.57;;;32.77;;
8113;SDS011;4099;52.684;9.918;2023-01-29T18:41:17;54.10;;;26.80;;
8113;SDS011;4099;52.684;9.918;2023-01-29T18:46:19;79.53;;;36.50;;
8113;SDS011;4099;52.684;9.918;2023-01-29T18:51:23;67.27;;;35.23;;
8113;SDS011;4099;52.684;9.918;2023-01-29T18:56:26;66.50;;;33.93;;
8113;SDS011;4099;52.684;9.918;2023-01-29T19:01:28;71.50;;;34.07;;
8113;SDS011;4099;52.684;9.918;2023-01-29T19:06:31;63.40;;;31.53;;
8113;SDS011;4099;52.684;9.918;2023-01-29T19:11:35;64.93;;;33.03;;
8113;SDS011;4099;52.684;9.918;2023-01-29T19:16:37;62.80;;;33.40;;
8113;SDS011;4099;52.684;9.918;2023-01-29T19:21:39;56.43;;;29.40;;
8113;SDS011;4099;52.684;9.918;2023-01-29T19:26:42;59.37;;;29.87;;
8113;SDS011;4099;52.684;9.918;2023-01-29T19:31:44;58.77;;;32.07;;
8113;SDS011;4099;52.684;9.918;2023-01-29T19:36:46;64.40;;;33.57;;
8113;SDS011;4099;52.684;9.918;2023-01-29T19:41:50;57.50;;;30.73;;
8113;SDS011;4099;52.684;9.918;2023-01-29T19:46:52;54.30;;;29.03;;
8113;SDS011;4099;52.684;9.918;2023-01-29T19:51:54;55.23;;;28.60;;
8113;SDS011;4099;52.684;9.918;2023-01-29T19:56:59;50.50;;;27.80;;
8113;SDS011;4099;52.684;9.918;2023-01-29T20:02:01;52.47;;;27.17;;
8113;SDS011;4099;52.684;9.918;2023-01-29T20:07:02;44.07;;;24.60;;
8113;SDS011;4099;52.684;9.918;2023-01-29T20:12:06;39.70;;;24.23;;
8113;SDS011;4099;52.684;9.918;2023-01-29T20:17:08;43.67;;;24.17;;
8113;SDS011;4099;52.684;9.918;2023-01-29T20:22:09;41.00;;;22.27;;
8113;SDS011;4099;52.684;9.918;2023-01-29T20:27:13;40.77;;;23.43;;
8113;SDS011;4099;52.684;9.918;2023-01-29T20:32:15;36.57;;;19.83;;
8113;SDS011;4099;52.684;9.918;2023-01-29T20:37:16;38.10;;;22.70;;
8113;SDS011;4099;52.684;9.918;2023-01-29T20:42:20;41.03;;;25.10;;
8113;SDS011;4099;52.684;9.918;2023-01-29T20:47:21;38.10;;;23.67;;
8113;SDS011;4099;52.684;9.918;2023-01-29T20:52:23;41.03;;;24.10;;
8113;SDS011;4099;52.684;9.918;2023-01-29T20:57:26;37.63;;;23.70;;
8113;SDS011;4099;52.684;9.918;2023-01-29T21:02:28;36.67;;;21.57;;
8113;SDS011;4099;52.684;9.918;2023-01-29T21:07:30;36.63;;;22.27;;
8113;SDS011;4099;52.684;9.918;2023-01-29T21:12:33;32.57;;;20.53;;
8113;SDS011;4099;52.684;9.918;2023-01-29T21:17:35;35.80;;;21.37;;
8113;SDS011;4099;52.684;9.918;2023-01-29T21:22:37;34.07;;;20.93;;
8113;SDS011;4099;52.684;9.918;2023-01-29T21:27:42;26.87;;;16.83;;
8113;SDS011;4099;52.684;9.918;2023-01-29T21:32:44;34.73;;;20.97;;
8113;SDS011;4099;52.684;9.918;2023-01-29T21:37:46;37.90;;;21.63;;
8113;SDS011;4099;52.684;9.918;2023-01-29T21:42:49;34.47;;;21.63;;
8113;SDS011;4099;52.684;9.918;2023-01-29T21:48:09;37.13;;;22.20;;
8113;SDS011;4099;52.684;9.918;2023-01-29T21:53:12;38.37;;;22.77;;
8113;SDS011;4099;52.684;9.918;2023-01-29T21:58:16;37.37;;;21.37;;
8113;SDS011;4099;52.684;9.918;2023-01-29T22:03:18;39.70;;;23.00;;
8113;SDS011;4099;52.684;9.918;2023-01-29T22:08:20;40.37;;;23.27;;
8113;SDS011;4099;52.684;9.918;2023-01-29T22:13:23;39.07;;;23.57;;
8113;SDS011;4099;52.684;9.918;2023-01-29T22:18:25;42.77;;;22.60;;
8113;SDS011;4099;52.684;9.918;2023-01-29T22:23:27;36.03;;;22.30;;
8113;SDS011;4099;52.684;9.918;2023-01-29T22:28:33;40.80;;;23.13;;
8113;SDS011;4099;52.684;9.918;2023-01-29T22:33:35;43.83;;;23.93;;
8113;SDS011;4099;52.684;9.918;2023-01-29T22:38:37;39.73;;;23.67;;
8113;SDS011;4099;52.684;9.918;2023-01-29T22:43:43;40.63;;;22.43;;
8113;SDS011;4099;52.684;9.918;2023-01-29T22:48:45;41.87;;;23.57;;
8113;SDS011;4099;52.684;9.918;2023-01-29T22:53:47;43.77;;;23.90;;
8113;SDS011;4099;52.684;9.918;2023-01-29T22:58:52;47.43;;;26.23;;
8113;SDS011;4099;52.684;9.918;2023-01-29T23:03:55;44.93;;;24.57;;
8113;SDS011;4099;52.684;9.918;2023-01-29T23:08:57;44.63;;;26.00;;
8113;SDS011;4099;52.684;9.918;2023-01-29T23:14:00;48.77;;;26.80;;
8113;SDS011;4099;52.684;9.918;2023-01-29T23:19:02;53.57;;;27.10;;
8113;SDS011;4099;52.684;9.918;2023-01-29T23:24:04;55.03;;;27.73;;
8113;SDS011;4099;52.684;9.918;2023-01-29T23:29:08;51.20;;;28.97;;
8113;SDS011;4099;52.684;9.918;2023-01-29T23:34:10;59.30;;;29.33;;
8113;SDS011;4099;52.684;9.918;2023-01-29T23:39:12;55.47;;;28.93;;
8113;SDS011;4099;52.684;9.918;2023-01-29T23:44:16;50.83;;;25.43;;
8113;SDS011;4099;52.684;9.918;2023-01-29T23:49:19;51.80;;;26.87;;
8113;SDS011;4099;52.684;9.918;2023-01-29T23:54:20;49.00;;;26.23;;
8113;SDS011;4099;52.684;9.918;2023-01-29T23:59:26;46.10;;;26.07;;
